createdAt,value
2023-01-06T00:02:15.683Z,78.27
2023-01-06T00:08:10.992Z,78.58
2023-01-06T00:10:37.848Z,78.57
2023-01-06T00:13:04.309Z,78.52
2023-01-06T00:15:32.357Z,78.90
2023-01-06T00:17:58.921Z,79.29
2023-01-06T00:20:25.428Z,79.17
2023-01-06T00:22:51.925Z,79.04
2023-01-06T00:25:18.434Z,79.32
2023-01-06T00:27:44.917Z,79.34
2023-01-06T00:30:11.611Z,79.60
2023-01-06T00:32:51.429Z,79.18
2023-01-06T00:35:17.946Z,79.21
2023-01-06T00:37:44.409Z,79.54
2023-01-06T00:40:11.022Z,79.50
2023-01-06T00:42:37.505Z,79.47
2023-01-06T00:45:04.155Z,79.54
2023-01-06T00:47:30.639Z,79.58
2023-01-06T00:49:57.073Z,79.67
2023-01-06T00:52:23.547Z,79.87
2023-01-06T00:54:50.039Z,79.62
2023-01-06T00:57:35.024Z,79.74
2023-01-06T01:00:01.485Z,80.04
2023-01-06T01:02:28.044Z,80.01
2023-01-06T01:04:54.576Z,79.57
2023-01-06T01:07:21.120Z,79.82
2023-01-06T01:09:47.602Z,79.85
2023-01-06T01:12:14.337Z,80.05
2023-01-06T01:14:46.929Z,79.60
2023-01-06T01:17:14.254Z,80.10
2023-01-06T01:19:40.973Z,79.73
2023-01-06T01:22:07.486Z,79.97
2023-01-06T01:24:34.202Z,80.08
2023-01-06T01:27:00.830Z,80.14
2023-01-06T01:29:27.345Z,79.86
2023-01-06T01:31:53.832Z,79.74
2023-01-06T01:34:20.386Z,79.92
2023-01-06T01:36:47.329Z,79.92
2023-01-06T01:39:16.009Z,79.69
2023-01-06T01:41:42.589Z,79.89
2023-01-06T01:44:27.947Z,79.97
2023-01-06T01:46:54.434Z,79.68
2023-01-06T01:49:21.996Z,79.50
2023-01-06T01:51:48.714Z,79.44
2023-01-06T01:54:17.319Z,79.19
2023-01-06T01:56:44.584Z,79.03
2023-01-06T01:59:12.320Z,78.92
2023-01-06T02:01:38.910Z,78.96
2023-01-06T02:04:05.454Z,79.14
2023-01-06T02:06:31.924Z,79.10
2023-01-06T02:09:24.813Z,78.83
2023-01-06T02:11:52.283Z,78.75
2023-01-06T02:14:22.697Z,78.97
2023-01-06T02:16:52.187Z,79.07
2023-01-06T02:19:27.981Z,78.87
2023-01-06T02:22:00.699Z,78.67
2023-01-06T02:24:30.167Z,78.91
2023-01-06T02:27:08.883Z,78.82
2023-01-06T02:29:47.539Z,78.83
2023-01-06T02:32:32.814Z,78.53
2023-01-06T02:35:05.431Z,78.50
2023-01-06T02:37:46.401Z,78.32
2023-01-06T02:40:28.195Z,78.73
2023-01-06T02:42:54.653Z,78.75
2023-01-06T02:45:27.237Z,78.98
2023-01-06T02:47:59.611Z,79.13
2023-01-06T02:50:29.091Z,78.85
2023-01-06T02:53:12.658Z,78.87
2023-01-06T02:55:40.340Z,78.96
2023-01-06T02:58:15.544Z,79.34
2023-01-06T03:00:53.124Z,79.70
2023-01-06T03:03:20.442Z,79.54
2023-01-06T03:05:47.738Z,79.93
2023-01-06T03:08:16.272Z,80.19
2023-01-06T03:10:43.131Z,80.12
2023-01-06T03:13:29.868Z,80.07
2023-01-06T03:15:56.433Z,79.89
2023-01-06T03:18:22.999Z,79.76
2023-01-06T03:20:49.921Z,79.31
2023-01-06T03:23:16.421Z,79.01
2023-01-06T03:25:42.881Z,78.71
2023-01-06T03:28:09.344Z,79.25
2023-01-06T03:30:43.545Z,79.55
2023-01-06T03:33:19.017Z,79.40
2023-01-06T03:35:45.529Z,79.52
2023-01-06T03:38:18.055Z,79.51
2023-01-06T03:40:48.226Z,79.57
2023-01-06T03:43:44.266Z,79.87
2023-01-06T03:46:29.517Z,78.96
2023-01-06T03:49:07.233Z,78.70
2023-01-06T03:51:33.706Z,78.58
2023-01-06T03:54:18.909Z,78.71
2023-01-06T03:56:46.871Z,78.99
2023-01-06T03:59:14.756Z,79.01
2023-01-06T04:01:43.502Z,79.37
2023-01-06T04:04:10.307Z,79.53
2023-01-06T04:06:36.952Z,79.89
2023-01-06T04:09:03.532Z,79.85
2023-01-06T04:11:48.525Z,79.87
2023-01-06T04:14:15.034Z,79.82
2023-01-06T04:16:41.499Z,79.90
2023-01-06T04:19:07.997Z,79.68
2023-01-06T04:21:34.500Z,79.28
2023-01-06T04:24:00.976Z,79.78
2023-01-06T04:26:27.500Z,79.72
2023-01-06T04:28:54.009Z,80.01
2023-01-06T04:31:20.514Z,78.99
2023-01-06T04:33:47.074Z,79.22
2023-01-06T04:36:14.543Z,79.22
2023-01-06T04:38:41.036Z,79.32
2023-01-06T04:41:07.497Z,79.46
2023-01-06T04:43:33.993Z,79.32
2023-01-06T04:46:00.490Z,79.75
2023-01-06T04:48:27.038Z,79.97
2023-01-06T04:51:19.937Z,79.93
2023-01-06T04:53:46.467Z,80.14
2023-01-06T04:56:13.354Z,80.01
2023-01-06T04:58:39.882Z,80.07
2023-01-06T05:01:07.270Z,79.98
2023-01-06T05:03:35.138Z,79.86
2023-01-06T05:06:05.611Z,79.73
2023-01-06T05:08:32.113Z,80.10
2023-01-06T05:10:59.239Z,79.92
2023-01-06T05:13:25.733Z,80.06
2023-01-06T05:15:52.326Z,80.31
2023-01-06T05:18:18.820Z,80.40
2023-01-06T05:20:45.321Z,80.00
2023-01-06T05:23:11.838Z,80.06
2023-01-06T05:25:38.525Z,80.18
2023-01-06T05:28:05.030Z,80.05
2023-01-06T05:30:31.489Z,79.93
2023-01-06T05:32:57.893Z,79.83
2023-01-06T05:35:24.376Z,79.61
2023-01-06T05:37:50.856Z,79.28
2023-01-06T05:40:17.361Z,79.13
2023-01-06T05:42:43.805Z,79.31
2023-01-06T05:45:10.622Z,79.31
2023-01-06T05:47:37.073Z,79.21
2023-01-06T05:50:04.339Z,79.26
2023-01-06T05:52:30.831Z,79.38
2023-01-06T05:54:57.252Z,79.43
2023-01-06T05:57:23.705Z,79.36
2023-01-06T05:59:50.194Z,79.32
2023-01-06T06:02:16.829Z,79.21
2023-01-06T06:04:43.290Z,79.35
2023-01-06T06:07:09.781Z,79.15
2023-01-06T06:09:36.264Z,79.09
2023-01-06T06:12:02.778Z,79.40
2023-01-06T06:14:29.270Z,79.30
2023-01-06T06:16:56.291Z,79.43
2023-01-06T06:19:22.732Z,79.51
2023-01-06T06:21:49.200Z,79.63
2023-01-06T06:24:15.674Z,79.37
2023-01-06T06:26:42.129Z,79.11
2023-01-06T06:29:08.758Z,79.11
2023-01-06T06:31:35.246Z,78.92
2023-01-06T06:34:01.909Z,79.31
2023-01-06T06:36:28.615Z,79.59
2023-01-06T06:38:55.104Z,80.08
2023-01-06T06:41:21.769Z,79.78
2023-01-06T06:43:48.626Z,80.10
2023-01-06T06:46:15.083Z,80.35
2023-01-06T06:48:41.565Z,80.39
2023-01-06T06:51:08.957Z,80.44
2023-01-06T06:53:35.575Z,80.38
2023-01-06T06:56:02.241Z,80.82
2023-01-06T06:58:28.757Z,80.49
2023-01-06T07:00:55.242Z,80.54
2023-01-06T07:03:23.179Z,80.58
2023-01-06T07:05:50.543Z,80.74
2023-01-06T07:08:19.252Z,80.75
2023-01-06T07:10:46.387Z,80.53
2023-01-06T07:13:13.144Z,80.49
2023-01-06T07:15:40.412Z,80.76
2023-01-06T07:18:07.937Z,80.17
2023-01-06T07:20:34.779Z,80.08
2023-01-06T07:23:01.248Z,80.21
2023-01-06T07:25:27.765Z,80.14
2023-01-06T07:27:55.184Z,80.06
2023-01-06T07:30:21.659Z,80.25
2023-01-06T07:32:48.419Z,80.13
2023-01-06T07:35:14.907Z,80.14
2023-01-06T07:37:41.407Z,79.67
2023-01-06T07:40:08.286Z,79.62
2023-01-06T07:42:37.771Z,79.92
2023-01-06T07:45:04.673Z,80.24
2023-01-06T07:47:31.183Z,80.20
2023-01-06T07:49:57.662Z,79.70
2023-01-06T07:52:24.147Z,79.34
2023-01-06T07:54:50.810Z,79.14
2023-01-06T07:57:18.097Z,79.55
2023-01-06T07:59:44.841Z,79.74
2023-01-06T08:02:11.517Z,79.43
2023-01-06T08:04:38.028Z,78.72
2023-01-06T08:07:04.544Z,78.83
2023-01-06T08:09:31.110Z,78.62
2023-01-06T08:11:59.679Z,78.64
2023-01-06T08:14:26.174Z,78.05
2023-01-06T08:16:52.632Z,77.76
2023-01-06T08:19:19.124Z,77.84
2023-01-06T08:21:45.609Z,77.13
2023-01-06T08:24:12.142Z,77.33
2023-01-06T08:26:38.635Z,77.81
2023-01-06T08:29:05.066Z,77.63
2023-01-06T08:31:32.315Z,76.98
2023-01-06T08:33:58.854Z,76.38
2023-01-06T08:36:25.397Z,76.65
2023-01-06T08:38:51.901Z,77.00
2023-01-06T08:41:18.483Z,76.80
2023-01-06T08:43:46.017Z,76.85
2023-01-06T08:46:13.579Z,76.77
2023-01-06T08:48:40.119Z,77.28
2023-01-06T08:51:07.568Z,77.37
2023-01-06T08:53:34.093Z,76.98
2023-01-06T08:56:00.617Z,77.29
2023-01-06T08:58:27.083Z,76.32
2023-01-06T09:00:53.550Z,76.96
2023-01-06T09:03:20.053Z,77.08
2023-01-06T09:05:53.831Z,77.01
2023-01-06T09:08:20.315Z,76.33
2023-01-06T09:10:46.895Z,76.76
2023-01-06T09:13:13.398Z,76.13
2023-01-06T09:15:40.780Z,76.67
2023-01-06T09:18:08.706Z,76.64
2023-01-06T09:20:35.555Z,77.35
2023-01-06T09:23:02.024Z,76.96
2023-01-06T09:25:28.440Z,76.07
2023-01-06T09:27:54.889Z,76.16
2023-01-06T09:30:21.383Z,74.04
2023-01-06T09:32:47.844Z,72.82
2023-01-06T09:35:14.343Z,73.66
2023-01-06T09:37:40.822Z,73.33
2023-01-06T09:40:07.659Z,72.98
2023-01-06T09:42:36.345Z,72.65
2023-01-06T09:45:12.521Z,72.18
2023-01-06T09:47:40.813Z,71.99
2023-01-06T09:50:14.700Z,72.58
2023-01-06T09:52:41.149Z,72.83
2023-01-06T09:55:09.824Z,73.06
2023-01-06T09:57:40.158Z,73.20
2023-01-06T10:00:25.434Z,73.17
2023-01-06T10:02:52.976Z,72.98
2023-01-06T10:05:32.456Z,73.35
2023-01-06T10:08:03.722Z,72.84
2023-01-06T10:10:36.198Z,72.75
2023-01-06T10:13:03.347Z,72.91
2023-01-06T10:15:32.704Z,72.37
2023-01-06T10:18:14.800Z,72.29
2023-01-06T10:20:41.314Z,71.91
2023-01-06T10:23:14.580Z,71.31
2023-01-06T10:25:41.663Z,71.18
2023-01-06T10:28:12.456Z,71.22
2023-01-06T10:30:46.600Z,70.60
2023-01-06T10:33:22.809Z,70.68
2023-01-06T10:35:49.419Z,71.22
2023-01-06T10:38:15.878Z,70.99
2023-01-06T10:40:42.522Z,71.35
2023-01-06T10:43:11.534Z,71.36
2023-01-06T10:45:38.034Z,71.65
2023-01-06T10:48:04.947Z,70.96
2023-01-06T10:50:31.451Z,70.54
2023-01-06T10:52:57.882Z,70.95
2023-01-06T10:55:24.504Z,70.83
2023-01-06T10:57:50.958Z,70.37
2023-01-06T11:00:17.672Z,70.12
2023-01-06T11:02:48.291Z,70.43
2023-01-06T11:05:15.558Z,70.60
2023-01-06T11:07:46.142Z,70.93
2023-01-06T11:10:22.650Z,70.47
2023-01-06T11:12:49.130Z,70.72
2023-01-06T11:15:20.853Z,70.67
2023-01-06T11:17:47.439Z,71.41
2023-01-06T11:20:13.922Z,71.40
2023-01-06T11:22:41.158Z,71.79
2023-01-06T11:25:19.933Z,71.48
2023-01-06T11:28:09.434Z,71.31
2023-01-06T11:30:40.359Z,71.29
2023-01-06T11:33:17.084Z,71.17
2023-01-06T11:35:43.553Z,70.39
2023-01-06T11:38:12.355Z,71.12
2023-01-06T11:40:38.868Z,70.58
2023-01-06T11:43:15.680Z,70.75
2023-01-06T11:45:43.576Z,71.62
2023-01-06T11:48:20.357Z,70.69
2023-01-06T11:50:50.333Z,70.61
2023-01-06T11:53:17.252Z,71.40
2023-01-06T11:55:55.035Z,71.30
2023-01-06T11:58:23.722Z,70.97
2023-01-06T12:01:12.084Z,70.01
2023-01-06T12:03:41.567Z,71.31
2023-01-06T12:06:14.302Z,70.56
2023-01-06T12:08:42.163Z,70.91
2023-01-06T12:11:15.983Z,70.74
2023-01-06T12:13:44.779Z,71.13
2023-01-06T12:16:23.616Z,71.27
2023-01-06T12:18:50.334Z,71.92
2023-01-06T12:21:19.367Z,71.23
2023-01-06T12:23:45.812Z,71.55
2023-01-06T12:26:16.972Z,71.43
2023-01-06T12:28:43.580Z,71.26
2023-01-06T12:31:10.501Z,70.26
2023-01-06T12:33:42.100Z,70.59
2023-01-06T12:36:23.933Z,70.81
2023-01-06T12:39:03.796Z,71.18
2023-01-06T12:41:30.318Z,71.64
2023-01-06T12:44:06.028Z,70.79
2023-01-06T12:46:35.043Z,71.10
2023-01-06T12:49:03.252Z,70.69
2023-01-06T12:51:29.719Z,70.29
2023-01-06T12:53:57.966Z,70.21
2023-01-06T12:56:27.396Z,70.21
2023-01-06T12:59:06.359Z,70.07
2023-01-06T13:01:53.770Z,69.72
2023-01-06T13:04:26.687Z,69.52
2023-01-06T13:07:06.370Z,69.56
2023-01-06T13:09:45.126Z,68.59
2023-01-06T13:12:20.758Z,69.83
2023-01-06T13:14:56.565Z,70.37
2023-01-06T13:17:23.070Z,70.67
2023-01-06T13:19:53.939Z,70.37
2023-01-06T13:22:29.505Z,70.63
2023-01-06T13:24:59.732Z,70.62
2023-01-06T13:27:41.565Z,70.91
2023-01-06T13:30:26.628Z,71.15
2023-01-06T13:33:08.813Z,71.46
2023-01-06T13:35:43.303Z,71.52
2023-01-06T13:38:12.873Z,72.08
2023-01-06T13:40:39.824Z,72.52
2023-01-06T13:43:07.006Z,72.65
2023-01-06T13:45:33.445Z,73.08
2023-01-06T13:48:00.698Z,73.46
2023-01-06T13:50:27.543Z,73.30
2023-01-06T13:52:53.987Z,73.80
2023-01-06T13:55:20.417Z,74.25
2023-01-06T13:57:46.941Z,73.79
2023-01-06T14:00:13.469Z,74.62
2023-01-06T14:02:40.010Z,75.24
2023-01-06T14:05:07.581Z,75.47
2023-01-06T14:07:37.863Z,75.62
2023-01-06T14:10:05.368Z,75.99
2023-01-06T14:12:32.274Z,76.11
2023-01-06T14:15:03.778Z,76.17
2023-01-06T14:17:30.333Z,76.05
2023-01-06T14:19:56.861Z,76.95
2023-01-06T14:22:24.686Z,76.89
2023-01-06T14:24:51.815Z,77.41
2023-01-06T14:27:38.305Z,78.11
2023-01-06T14:30:05.955Z,78.07
2023-01-06T14:32:32.443Z,78.70
2023-01-06T14:34:59.900Z,78.90
2023-01-06T14:37:28.946Z,78.64
2023-01-06T14:39:55.774Z,79.25
2023-01-06T14:42:39.125Z,80.20
2023-01-06T14:45:07.785Z,80.22
2023-01-06T14:47:34.883Z,80.64
2023-01-06T14:50:16.090Z,81.15
2023-01-06T14:52:43.971Z,81.69
2023-01-06T14:55:11.148Z,81.81
2023-01-06T14:57:39.261Z,82.29
2023-01-06T15:00:05.768Z,82.47
2023-01-06T15:02:32.533Z,83.04
2023-01-06T15:04:59.456Z,83.17
2023-01-06T15:07:25.925Z,83.13
2023-01-06T15:09:52.520Z,83.13
2023-01-06T15:12:22.846Z,83.09
2023-01-06T15:14:49.303Z,83.27
2023-01-06T15:17:16.945Z,83.27
2023-01-06T15:19:44.179Z,83.22
2023-01-06T15:22:10.861Z,83.33
2023-01-06T15:24:39.479Z,83.17
2023-01-06T15:27:06.842Z,82.41
2023-01-06T15:29:33.346Z,83.16
2023-01-06T15:31:59.861Z,82.97
2023-01-06T15:34:32.388Z,82.90
2023-01-06T15:36:58.825Z,83.30
2023-01-06T15:39:26.612Z,83.34
2023-01-06T15:41:53.356Z,82.97
2023-01-06T15:44:33.016Z,83.39
2023-01-06T15:47:03.858Z,83.44
2023-01-06T15:49:37.687Z,83.62
2023-01-06T15:52:17.463Z,83.29
2023-01-06T15:54:44.067Z,83.09
2023-01-06T15:57:16.604Z,83.03
2023-01-06T15:59:50.913Z,83.22
2023-01-06T16:02:18.334Z,83.16
2023-01-06T16:04:45.986Z,83.28
2023-01-06T16:07:21.741Z,82.95
2023-01-06T16:09:48.357Z,83.38
2023-01-06T16:12:16.166Z,82.81
2023-01-06T16:14:51.828Z,83.25
2023-01-06T16:17:35.598Z,83.11
2023-01-06T16:20:03.037Z,82.67
2023-01-06T16:22:48.984Z,82.79
2023-01-06T16:25:21.510Z,83.17
2023-01-06T16:27:48.445Z,83.05
2023-01-06T16:30:14.903Z,83.22
2023-01-06T16:32:41.770Z,82.60
2023-01-06T16:35:15.735Z,83.06
2023-01-06T16:37:42.549Z,83.57
2023-01-06T16:40:09.393Z,83.49
2023-01-06T16:42:39.472Z,83.17
2023-01-06T16:45:07.477Z,83.45
2023-01-06T16:47:33.986Z,83.46
2023-01-06T16:50:11.037Z,83.45
2023-01-06T16:52:37.599Z,83.29
2023-01-06T16:55:08.410Z,83.23
2023-01-06T16:57:34.989Z,83.45
2023-01-06T17:00:01.624Z,83.80
2023-01-06T17:02:28.326Z,83.89
2023-01-06T17:04:55.050Z,84.44
2023-01-06T17:07:21.718Z,84.06
2023-01-06T17:09:48.412Z,84.42
2023-01-06T17:12:38.150Z,84.52
2023-01-06T17:15:04.822Z,84.30
2023-01-06T17:17:31.347Z,84.45
2023-01-06T17:19:57.867Z,84.39
2023-01-06T17:22:26.318Z,84.58
2023-01-06T17:24:52.898Z,84.53
2023-01-06T17:27:31.765Z,84.79
2023-01-06T17:29:59.363Z,84.86
2023-01-06T17:32:25.987Z,84.63
2023-01-06T17:34:53.252Z,84.91
2023-01-06T17:37:22.142Z,84.74
2023-01-06T17:39:48.797Z,84.74
2023-01-06T17:42:15.255Z,85.02
2023-01-06T17:45:11.090Z,84.62
2023-01-06T17:47:43.438Z,84.75
2023-01-06T17:50:29.140Z,84.86
2023-01-06T17:53:26.594Z,85.21
2023-01-06T17:55:53.013Z,85.20
2023-01-06T17:58:19.817Z,85.30
2023-01-06T18:00:46.356Z,85.07
2023-01-06T18:03:18.804Z,84.66
2023-01-06T18:05:56.196Z,84.83
2023-01-06T18:08:23.177Z,85.07
2023-01-06T18:10:57.257Z,85.04
2023-01-06T18:13:24.557Z,85.27
2023-01-06T18:15:52.132Z,85.21
2023-01-06T18:18:20.541Z,85.27
2023-01-06T18:20:56.349Z,85.31
2023-01-06T18:23:23.086Z,85.23
2023-01-06T18:25:56.173Z,85.64
2023-01-06T18:28:22.680Z,85.65
2023-01-06T18:30:51.819Z,85.93
2023-01-06T18:33:18.236Z,86.18
2023-01-06T18:35:46.324Z,85.86
2023-01-06T18:38:12.764Z,85.71
2023-01-06T18:40:39.247Z,86.15
2023-01-06T18:43:17.590Z,86.20
2023-01-06T18:45:44.172Z,86.11
2023-01-06T18:48:22.761Z,86.61
2023-01-06T18:50:49.247Z,86.50
2023-01-06T18:53:15.820Z,86.76
2023-01-06T18:55:43.091Z,86.41
2023-01-06T18:58:25.960Z,86.11
2023-01-06T19:00:53.978Z,85.70
2023-01-06T19:03:30.947Z,86.19
2023-01-06T19:06:17.703Z,85.79
2023-01-06T19:08:44.897Z,85.90
2023-01-06T19:11:37.967Z,85.77
2023-01-06T19:14:06.335Z,85.86
2023-01-06T19:16:37.248Z,85.26
2023-01-06T19:19:09.938Z,85.37
2023-01-06T19:21:36.712Z,84.92
2023-01-06T19:24:08.936Z,85.16
2023-01-06T19:26:37.341Z,85.34
2023-01-06T19:29:04.152Z,85.11
2023-01-06T19:31:30.809Z,85.09
2023-01-06T19:34:01.000Z,84.97
2023-01-06T19:36:40.191Z,85.15
2023-01-06T19:39:33.131Z,85.08
2023-01-06T19:42:02.412Z,85.04
2023-01-06T19:44:31.120Z,85.48
2023-01-06T19:46:57.615Z,85.52
2023-01-06T19:49:25.241Z,85.05
2023-01-06T19:51:52.521Z,84.72
2023-01-06T19:54:28.095Z,85.25
2023-01-06T19:56:55.153Z,84.95
2023-01-06T19:59:22.010Z,84.73
2023-01-06T20:01:49.882Z,84.40
2023-01-06T20:04:21.376Z,84.82
2023-01-06T20:07:29.783Z,84.71
2023-01-06T20:09:56.250Z,84.65
2023-01-06T20:12:22.674Z,84.87
2023-01-06T20:14:49.196Z,85.05
2023-01-06T20:17:16.865Z,85.42
2023-01-06T20:19:43.460Z,84.79
2023-01-06T20:22:09.982Z,85.40
2023-01-06T20:24:36.451Z,85.50
2023-01-06T20:27:02.909Z,84.78
2023-01-06T20:29:29.355Z,85.09
2023-01-06T20:32:01.313Z,85.09
2023-01-06T20:34:28.762Z,85.51
2023-01-06T20:36:55.388Z,85.34
2023-01-06T20:39:22.040Z,85.27
2023-01-06T20:41:48.511Z,85.41
2023-01-06T20:44:15.169Z,85.38
2023-01-06T20:46:41.859Z,85.53
2023-01-06T20:49:08.419Z,85.45
2023-01-06T20:51:34.844Z,84.86
2023-01-06T20:54:01.267Z,85.55
2023-01-06T20:56:27.757Z,85.52
2023-01-06T20:58:54.353Z,85.51
2023-01-06T21:01:20.984Z,85.18
2023-01-06T21:03:47.596Z,85.49
2023-01-06T21:06:14.071Z,85.08
2023-01-06T21:08:40.560Z,84.78
2023-01-06T21:11:07.026Z,85.50
2023-01-06T21:13:33.524Z,84.97
2023-01-06T21:16:00.180Z,84.79
2023-01-06T21:18:26.670Z,84.72
2023-01-06T21:20:53.164Z,85.05
2023-01-06T21:23:19.673Z,84.86
2023-01-06T21:25:46.147Z,84.76
2023-01-06T21:28:12.629Z,84.53
2023-01-06T21:30:39.231Z,85.17
2023-01-06T21:33:05.735Z,84.94
2023-01-06T21:35:32.219Z,84.58
2023-01-06T21:37:58.641Z,84.52
2023-01-06T21:40:25.142Z,84.94
2023-01-06T21:43:10.203Z,84.63
2023-01-06T21:45:40.521Z,84.75
2023-01-06T21:48:07.118Z,84.47
2023-01-06T21:50:34.770Z,84.65
2023-01-06T21:53:01.479Z,84.21
2023-01-06T21:55:27.931Z,84.44
2023-01-06T21:57:54.452Z,84.44
2023-01-06T22:00:21.087Z,85.16
2023-01-06T22:02:47.830Z,85.14
2023-01-06T22:05:14.510Z,84.76
2023-01-06T22:07:41.978Z,84.52
2023-01-06T22:10:08.718Z,84.29
2023-01-06T22:12:35.803Z,84.82
2023-01-06T22:15:02.246Z,84.44
2023-01-06T22:17:28.702Z,84.92
2023-01-06T22:19:55.209Z,84.63
2023-01-06T22:22:22.744Z,84.89
2023-01-06T22:24:49.981Z,84.94
2023-01-06T22:27:16.472Z,84.36
2023-01-06T22:29:43.064Z,84.33
2023-01-06T22:32:09.521Z,84.59
2023-01-06T22:34:37.260Z,84.60
2023-01-06T22:37:03.761Z,84.68
2023-01-06T22:39:30.302Z,84.59
2023-01-06T22:41:56.958Z,84.87
2023-01-06T22:44:23.459Z,84.67
2023-01-06T22:46:49.915Z,84.16
2023-01-06T22:49:16.404Z,84.52
2023-01-06T22:51:43.684Z,84.62
2023-01-06T22:54:10.266Z,84.67
2023-01-06T22:56:36.795Z,84.64
2023-01-06T22:59:03.284Z,84.91
2023-01-06T23:01:29.965Z,84.32
2023-01-06T23:03:56.516Z,84.67
2023-01-06T23:06:23.029Z,84.86
2023-01-06T23:08:59.743Z,84.20
2023-01-06T23:11:28.031Z,84.27
2023-01-06T23:13:55.448Z,84.26
2023-01-06T23:16:22.764Z,84.25
2023-01-06T23:18:49.442Z,83.82
2023-01-06T23:21:16.620Z,84.06
2023-01-06T23:23:43.500Z,84.05
2023-01-06T23:26:16.868Z,83.93
2023-01-06T23:28:43.835Z,84.16
2023-01-06T23:31:10.282Z,84.09
2023-01-06T23:33:37.741Z,83.47
2023-01-06T23:36:04.392Z,83.72
2023-01-06T23:38:30.977Z,84.20
2023-01-06T23:41:04.256Z,84.30
2023-01-06T23:43:31.533Z,84.23
2023-01-06T23:46:05.128Z,83.80
2023-01-06T23:48:31.956Z,84.38
2023-01-06T23:50:58.571Z,84.33
2023-01-06T23:53:25.359Z,84.22
2023-01-06T23:56:11.617Z,84.45
2023-01-06T23:58:38.606Z,84.39
